Main page
METAR-TAF:

METAR-TAF

Airports :

Bauru Airport

Bauru, São Paulo, Brazil

latitude: 22-19S, longitude: 049-04W, elevation: 590 m

Current weather observation

The report was made 25 minutes ago, at 00:00 UTC
Wind 4 kt from the West
Temperature 23°C
Humidity 100%
Pressure 1010 hPa
Visibility: 4000 m
Scattered clouds at a height of 400 ft
Overcast at a height of 3000 ft
light rain, mist

METAR: SBBU 160000Z 28004KT 4000 -RA BR SCT004 OVC030 23/23 Q1010

Time: 22:25 (00:25 UTC)

Forecast

The report was made 9 hours and 25 minutes ago, at 15:00 UTC
Forecast valid from 15 at 18 UTC to 16 at 06 UTC
Wind 7 kt from the Northwest
Visibility 10 km or more
Broken clouds at a height of 3000 ft
Probability 40% :
Temporary
from 16 at 00 UTC to 16 at 06 UTC
Visibility: 5000 m
Broken clouds at a height of 400 ft
mist

TAF: SBBU 151500Z 1518/1606 31007KT 9999 BKN030 TX28/1518Z TN22/1606Z PROB40 TEMPO 1600/1606 5000 BR BKN004 RMK PDW

Weather observations and forecasts of more than 4000 airports (METAR and TAF reports).

The available stations are represented by yellow and red dots on the map.

Hover mouse over dot to see the name of the station.

Then click to see weather observations and forecasts.

To change the map : click on the green buttons with a black cross to zoom in, on the green button with a dash to zoom out, or on the green arrows for adjacent maps.


METAR-TAF: